createdAt,value
2023-02-19T00:01:33.796Z,28.96
2023-02-19T00:04:55.890Z,28.89
2023-02-19T00:08:17.728Z,28.87
2023-02-19T00:11:40.114Z,28.81
2023-02-19T00:15:05.034Z,28.77
2023-02-19T00:18:26.856Z,28.69
2023-02-19T00:21:51.792Z,28.66
2023-02-19T00:25:13.931Z,28.61
2023-02-19T00:28:36.040Z,28.57
2023-02-19T00:31:57.977Z,28.52
2023-02-19T00:35:19.853Z,28.48
2023-02-19T00:38:43.249Z,28.44
2023-02-19T00:42:05.090Z,28.38
2023-02-19T00:45:26.873Z,28.32
2023-02-19T00:48:50.269Z,28.30
2023-02-19T00:52:12.015Z,28.28
2023-02-19T00:55:34.127Z,28.23
2023-02-19T00:58:56.507Z,28.20
2023-02-19T01:02:18.577Z,28.17
2023-02-19T01:05:40.437Z,28.12
2023-02-19T01:09:02.835Z,28.09
2023-02-19T01:12:25.898Z,28.07
2023-02-19T01:15:47.910Z,28.05
2023-02-19T01:19:09.708Z,28.02
2023-02-19T01:22:31.527Z,27.98
2023-02-19T01:25:53.303Z,27.96
2023-02-19T01:29:17.437Z,27.94
2023-02-19T01:32:39.212Z,27.89
2023-02-19T01:36:04.074Z,27.88
2023-02-19T01:39:25.838Z,27.87
2023-02-19T01:42:47.807Z,27.84
2023-02-19T01:46:09.634Z,27.81
2023-02-19T01:49:39.885Z,27.79
2023-02-19T01:53:05.440Z,27.76
2023-02-19T01:56:27.939Z,27.72
2023-02-19T01:59:53.353Z,27.70
2023-02-19T02:03:16.360Z,27.69
2023-02-19T02:07:24.649Z,27.68
2023-02-19T02:10:46.466Z,27.64
2023-02-19T02:14:08.501Z,27.63
2023-02-19T02:17:43.719Z,27.61
2023-02-19T02:21:08.802Z,27.59
2023-02-19T02:24:57.901Z,27.58
2023-02-19T02:28:43.292Z,27.57
2023-02-19T02:32:13.658Z,27.55
2023-02-19T02:35:43.009Z,27.56
2023-02-19T02:39:08.538Z,27.55
2023-02-19T02:42:33.958Z,27.53
2023-02-19T02:45:58.809Z,27.51
2023-02-19T02:49:25.969Z,27.50
2023-02-19T02:53:09.392Z,27.49
2023-02-19T02:56:31.935Z,27.48
2023-02-19T02:59:53.820Z,27.49
2023-02-19T03:03:20.840Z,27.47
2023-02-19T03:06:44.299Z,27.48
2023-02-19T03:10:10.016Z,27.45
2023-02-19T03:13:54.137Z,27.46
2023-02-19T03:17:40.633Z,27.46
2023-02-19T03:21:02.798Z,27.45
2023-02-19T03:24:47.825Z,27.46
2023-02-19T03:28:11.754Z,27.43
2023-02-19T03:31:34.247Z,27.43
2023-02-19T03:35:02.605Z,27.42
2023-02-19T03:38:38.022Z,27.42
2023-02-19T03:42:28.637Z,27.41
2023-02-19T03:46:12.031Z,27.41
2023-02-19T03:49:49.202Z,27.39
2023-02-19T03:53:14.765Z,27.40
2023-02-19T03:56:45.050Z,27.39
2023-02-19T04:00:39.336Z,27.39
2023-02-19T04:04:07.250Z,27.37
2023-02-19T04:07:33.134Z,27.36
2023-02-19T04:10:55.570Z,27.36
2023-02-19T04:14:34.840Z,27.36
2023-02-19T04:18:00.863Z,27.36
2023-02-19T04:21:23.630Z,27.32
2023-02-19T04:24:49.927Z,27.33
2023-02-19T04:28:13.723Z,27.33
2023-02-19T04:31:35.917Z,27.32
2023-02-19T04:34:57.749Z,27.31
2023-02-19T04:38:19.693Z,27.30
2023-02-19T04:41:41.466Z,27.30
2023-02-19T04:45:03.447Z,27.27
2023-02-19T04:48:25.412Z,27.26
2023-02-19T04:51:47.253Z,27.25
2023-02-19T04:55:09.793Z,27.24
2023-02-19T04:58:31.577Z,27.25
2023-02-19T05:01:53.477Z,27.23
2023-02-19T05:05:15.363Z,27.23
2023-02-19T05:08:37.400Z,27.21
2023-02-19T05:15:34.910Z,27.21
2023-02-19T05:18:56.685Z,27.20
2023-02-19T05:22:18.512Z,27.19
2023-02-19T05:25:40.267Z,27.19
2023-02-19T05:29:02.693Z,27.18
2023-02-19T05:32:24.518Z,27.18
2023-02-19T05:35:49.843Z,27.16
2023-02-19T05:39:12.369Z,27.16
2023-02-19T05:42:34.181Z,27.15
2023-02-19T05:45:59.450Z,27.14
2023-02-19T05:49:21.293Z,27.14
2023-02-19T05:52:44.304Z,27.12
2023-02-19T05:56:25.225Z,27.12
2023-02-19T05:59:47.020Z,27.11
2023-02-19T06:03:10.829Z,27.09
2023-02-19T06:06:32.965Z,27.09
2023-02-19T06:09:55.098Z,27.09
2023-02-19T06:13:17.881Z,27.08
2023-02-19T06:16:41.283Z,27.07
2023-02-19T06:20:03.514Z,27.05
2023-02-19T06:23:30.437Z,27.05
2023-02-19T06:26:52.303Z,27.04
2023-02-19T06:30:14.086Z,27.03
2023-02-19T06:33:36.277Z,27.01
2023-02-19T06:36:58.650Z,26.99
2023-02-19T06:40:20.393Z,26.97
2023-02-19T06:43:42.382Z,26.94
2023-02-19T06:47:04.289Z,26.89
2023-02-19T06:50:26.082Z,26.86
2023-02-19T06:53:48.111Z,26.80
2023-02-19T06:57:09.905Z,26.74
2023-02-19T07:00:31.710Z,26.69
2023-02-19T07:03:53.952Z,26.63
2023-02-19T07:07:15.805Z,26.62
2023-02-19T07:10:37.567Z,26.59
2023-02-19T07:14:01.700Z,26.57
2023-02-19T07:17:23.496Z,26.58
2023-02-19T07:20:45.239Z,26.56
2023-02-19T07:24:08.277Z,26.56
2023-02-19T07:27:30.351Z,26.54
2023-02-19T07:30:52.440Z,26.53
2023-02-19T07:34:14.253Z,26.53
2023-02-19T07:37:36.129Z,26.52
2023-02-19T07:41:00.537Z,26.51
2023-02-19T07:44:22.394Z,26.51
2023-02-19T07:47:44.232Z,26.49
2023-02-19T07:51:07.962Z,26.48
2023-02-19T07:54:29.860Z,26.46
2023-02-19T07:57:51.670Z,26.45
2023-02-19T08:01:16.476Z,26.42
2023-02-19T08:04:38.306Z,26.40
2023-02-19T08:08:00.973Z,26.37
2023-02-19T08:11:41.609Z,26.32
2023-02-19T08:15:03.677Z,26.28
2023-02-19T08:18:26.973Z,26.27
2023-02-19T08:21:49.007Z,26.24
2023-02-19T08:25:10.813Z,26.23
2023-02-19T08:28:33.909Z,26.22
2023-02-19T08:31:55.754Z,26.22
2023-02-19T08:35:17.796Z,26.20
2023-02-19T08:38:39.628Z,26.19
2023-02-19T08:42:01.355Z,26.17
2023-02-19T08:45:24.417Z,26.13
2023-02-19T08:48:46.221Z,26.11
2023-02-19T08:52:08.030Z,26.08
2023-02-19T08:55:30.712Z,26.06
2023-02-19T08:58:52.829Z,26.04
2023-02-19T09:02:14.641Z,26.04
2023-02-19T09:05:36.425Z,26.05
2023-02-19T09:08:58.153Z,26.07
2023-02-19T09:12:19.967Z,26.07
2023-02-19T09:15:41.699Z,26.08
2023-02-19T09:19:05.430Z,26.10
2023-02-19T09:22:27.266Z,26.12
2023-02-19T09:25:49.716Z,26.12
2023-02-19T09:29:11.497Z,26.14
2023-02-19T09:32:33.831Z,26.15
2023-02-19T09:35:59.515Z,26.16
2023-02-19T09:39:21.808Z,26.17
2023-02-19T09:42:43.963Z,26.17
2023-02-19T09:46:36.182Z,26.13
2023-02-19T09:50:09.400Z,26.09
2023-02-19T09:53:43.517Z,26.06
2023-02-19T09:57:06.307Z,26.03
2023-02-19T10:00:30.660Z,26.03
2023-02-19T10:03:52.593Z,26.01
2023-02-19T10:07:16.492Z,26.03
2023-02-19T10:10:38.535Z,26.00
2023-02-19T10:14:11.438Z,25.58
2023-02-19T10:17:34.883Z,25.21
2023-02-19T10:20:57.652Z,25.07
2023-02-19T10:24:30.756Z,24.93
2023-02-19T10:27:52.637Z,24.70
2023-02-19T10:31:24.816Z,24.35
2023-02-19T10:34:47.496Z,23.99
2023-02-19T10:38:16.588Z,23.93
2023-02-19T10:41:44.051Z,24.02
2023-02-19T10:45:21.437Z,23.88
2023-02-19T10:49:00.750Z,23.67
2023-02-19T10:52:29.669Z,23.67
2023-02-19T10:56:08.564Z,23.77
2023-02-19T10:59:30.421Z,23.74
2023-02-19T11:03:21.682Z,23.69
2023-02-19T11:06:44.035Z,23.79
2023-02-19T11:10:07.240Z,23.89
2023-02-19T11:13:33.205Z,24.02
2023-02-19T11:16:57.637Z,24.14
2023-02-19T11:20:19.600Z,24.26
2023-02-19T11:23:46.143Z,24.38
2023-02-19T11:27:18.381Z,24.52
2023-02-19T11:30:42.602Z,24.63
2023-02-19T11:34:30.049Z,24.72
2023-02-19T11:38:00.074Z,24.85
2023-02-19T11:41:44.225Z,25.01
2023-02-19T11:45:24.720Z,24.71
2023-02-19T11:48:57.330Z,24.42
2023-02-19T11:52:40.499Z,24.22
2023-02-19T11:56:09.126Z,24.51
2023-02-19T11:59:56.361Z,24.22
2023-02-19T12:03:59.386Z,23.73
2023-02-19T12:07:53.010Z,23.28
2023-02-19T12:11:24.267Z,22.95
2023-02-19T12:14:52.739Z,22.61
2023-02-19T12:18:43.225Z,22.13
2023-02-19T12:22:33.990Z,21.65
2023-02-19T12:26:20.510Z,21.31
2023-02-19T12:29:54.829Z,21.30
2023-02-19T12:33:33.478Z,21.25
2023-02-19T12:37:13.674Z,21.08
2023-02-19T12:41:04.230Z,21.01
2023-02-19T12:44:37.201Z,21.01
2023-02-19T12:48:24.520Z,21.13
2023-02-19T12:51:51.046Z,21.18
2023-02-19T12:55:37.828Z,21.24
2023-02-19T12:59:09.659Z,21.27
2023-02-19T13:02:52.193Z,21.32
2023-02-19T13:06:36.731Z,21.35
2023-02-19T13:10:08.358Z,21.35
2023-02-19T13:13:41.966Z,21.35
2023-02-19T13:17:34.849Z,21.37
2023-02-19T13:20:57.030Z,21.38
2023-02-19T13:24:39.262Z,21.28
2023-02-19T13:28:17.346Z,21.09
2023-02-19T13:31:57.988Z,20.92
2023-02-19T13:35:42.500Z,20.81
2023-02-19T13:39:07.592Z,20.82
2023-02-19T13:42:35.577Z,20.85
2023-02-19T13:46:06.985Z,20.86
2023-02-19T13:49:29.147Z,20.83
2023-02-19T13:52:58.660Z,20.73
2023-02-19T13:56:34.351Z,20.67
2023-02-19T14:00:00.177Z,20.60
2023-02-19T14:03:31.880Z,20.54
2023-02-19T14:07:05.766Z,20.54
2023-02-19T14:10:46.550Z,20.57
2023-02-19T14:14:47.988Z,20.61
2023-02-19T14:18:42.063Z,20.64
2023-02-19T14:22:42.319Z,20.63
2023-02-19T14:26:07.579Z,20.58
2023-02-19T14:29:30.093Z,20.55
2023-02-19T14:33:02.812Z,20.51
2023-02-19T14:36:36.195Z,20.46
2023-02-19T14:39:58.323Z,20.41
2023-02-19T14:43:22.341Z,20.41
2023-02-19T14:46:58.727Z,20.42
2023-02-19T14:50:29.979Z,20.42
2023-02-19T14:53:52.103Z,20.42
2023-02-19T14:57:18.469Z,20.41
2023-02-19T15:00:41.987Z,20.46
2023-02-19T15:04:04.689Z,20.55
2023-02-19T15:07:30.052Z,20.67
2023-02-19T15:10:51.929Z,20.75
2023-02-19T15:14:20.736Z,20.81
2023-02-19T15:17:42.576Z,20.85
2023-02-19T15:21:05.874Z,20.89
2023-02-19T15:24:28.448Z,20.93
2023-02-19T15:27:50.804Z,20.95
2023-02-19T15:31:16.280Z,20.98
2023-02-19T15:34:40.738Z,21.00
2023-02-19T15:38:02.581Z,21.04
2023-02-19T15:41:28.519Z,21.07
2023-02-19T15:45:04.355Z,21.14
2023-02-19T15:48:36.336Z,21.18
2023-02-19T15:52:04.001Z,21.25
2023-02-19T15:55:36.691Z,21.29
2023-02-19T15:59:07.251Z,21.30
2023-02-19T16:02:29.231Z,21.31
2023-02-19T16:06:03.493Z,21.35
2023-02-19T16:09:43.152Z,21.37
2023-02-19T16:13:08.365Z,21.40
2023-02-19T16:16:36.537Z,21.41
2023-02-19T16:23:45.005Z,21.42
2023-02-19T16:27:07.882Z,21.43
2023-02-19T16:30:34.023Z,21.48
2023-02-19T16:33:58.364Z,21.49
2023-02-19T16:37:59.296Z,21.50
2023-02-19T16:41:21.156Z,21.53
2023-02-19T16:44:43.555Z,21.56
2023-02-19T16:48:05.393Z,21.59
2023-02-19T16:51:27.929Z,21.61
2023-02-19T16:54:50.087Z,21.60
2023-02-19T16:58:11.886Z,21.63
2023-02-19T17:01:35.146Z,21.65
2023-02-19T17:04:56.963Z,21.66
2023-02-19T17:08:37.574Z,21.67
2023-02-19T17:11:59.371Z,21.69
2023-02-19T17:15:22.243Z,21.71
2023-02-19T17:18:44.347Z,21.69
2023-02-19T17:22:06.844Z,21.67
2023-02-19T17:25:28.755Z,21.67
2023-02-19T17:28:50.819Z,21.67
2023-02-19T17:32:14.549Z,21.68
2023-02-19T17:35:36.634Z,21.69
2023-02-19T17:39:00.097Z,21.70
2023-02-19T17:42:22.005Z,21.73
2023-02-19T17:45:43.951Z,21.76
2023-02-19T17:49:07.551Z,21.79
2023-02-19T17:52:29.732Z,21.83
2023-02-19T17:55:51.516Z,21.87
2023-02-19T17:59:13.853Z,21.90
2023-02-19T18:02:36.083Z,21.94
2023-02-19T18:05:57.876Z,21.96
2023-02-19T18:09:21.599Z,22.00
2023-02-19T18:12:43.486Z,22.04
2023-02-19T18:16:06.429Z,22.09
2023-02-19T18:19:28.360Z,22.14
2023-02-19T18:22:50.815Z,22.16
2023-02-19T18:26:13.749Z,22.19
2023-02-19T18:29:35.526Z,22.23
2023-02-19T18:32:58.192Z,22.23
2023-02-19T18:36:20.085Z,22.25
2023-02-19T18:39:43.891Z,22.27
2023-02-19T18:43:05.999Z,22.28
2023-02-19T18:46:27.862Z,22.30
2023-02-19T18:49:51.958Z,22.32
2023-02-19T18:53:14.379Z,22.33
2023-02-19T18:56:46.752Z,22.35
2023-02-19T19:00:16.050Z,22.36
2023-02-19T19:03:37.843Z,22.38
2023-02-19T19:06:59.877Z,22.41
2023-02-19T19:10:22.250Z,22.42
2023-02-19T19:13:46.131Z,22.42
2023-02-19T19:17:08.032Z,22.45
2023-02-19T19:20:29.879Z,22.46
2023-02-19T19:23:51.776Z,22.47
2023-02-19T19:27:13.880Z,22.47
2023-02-19T19:30:37.193Z,22.49
2023-02-19T19:33:59.959Z,22.52
2023-02-19T19:37:21.753Z,22.56
2023-02-19T19:40:43.575Z,22.58
2023-02-19T19:44:06.272Z,22.60
2023-02-19T19:47:28.666Z,22.63
2023-02-19T19:50:53.465Z,22.66
2023-02-19T19:54:15.286Z,22.69
2023-02-19T19:57:39.599Z,22.71
2023-02-19T20:01:02.630Z,22.75
2023-02-19T20:04:25.592Z,22.98
2023-02-19T20:07:47.790Z,23.80
2023-02-19T20:11:09.885Z,23.98
2023-02-19T20:14:34.611Z,23.95
2023-02-19T20:17:56.844Z,23.94
2023-02-19T20:21:18.732Z,23.92
2023-02-19T20:24:40.589Z,23.87
2023-02-19T20:28:05.087Z,23.79
2023-02-19T20:31:27.080Z,23.75
2023-02-19T20:34:51.606Z,23.71
2023-02-19T20:38:17.455Z,23.65
2023-02-19T20:41:39.363Z,23.62
2023-02-19T20:45:01.477Z,23.58
2023-02-19T20:48:23.753Z,23.53
2023-02-19T20:51:48.304Z,23.48
2023-02-19T20:55:12.645Z,23.43
2023-02-19T20:58:34.471Z,23.41
2023-02-19T21:01:59.775Z,23.39
2023-02-19T21:05:21.820Z,23.36
2023-02-19T21:08:50.253Z,23.36
2023-02-19T21:12:12.641Z,23.33
2023-02-19T21:15:34.595Z,23.32
2023-02-19T21:18:57.338Z,23.31
2023-02-19T21:22:26.845Z,23.29
2023-02-19T21:25:49.132Z,23.26
2023-02-19T21:29:19.195Z,23.25
2023-02-19T21:32:41.130Z,23.23
2023-02-19T21:36:04.188Z,23.22
2023-02-19T21:39:27.579Z,23.21
2023-02-19T21:42:55.534Z,23.20
2023-02-19T21:46:20.803Z,23.16
2023-02-19T21:49:42.972Z,23.15
2023-02-19T21:53:07.210Z,23.15
2023-02-19T21:56:39.056Z,23.13
2023-02-19T22:00:02.300Z,23.13
2023-02-19T22:03:26.769Z,23.12
2023-02-19T22:06:48.643Z,23.14
2023-02-19T22:10:13.082Z,23.16
2023-02-19T22:13:38.685Z,23.15
2023-02-19T22:17:00.506Z,23.16
2023-02-19T22:20:22.383Z,23.16
2023-02-19T22:23:48.938Z,23.16
2023-02-19T22:27:10.774Z,23.17
2023-02-19T22:30:35.879Z,23.15
2023-02-19T22:33:57.758Z,23.15
2023-02-19T22:37:19.549Z,23.17
2023-02-19T22:40:46.354Z,23.17
2023-02-19T22:44:09.716Z,23.18
2023-02-19T22:47:31.653Z,23.17
2023-02-19T22:50:55.054Z,23.16
2023-02-19T22:54:17.165Z,23.16
2023-02-19T22:57:38.989Z,23.15
2023-02-19T23:01:00.811Z,23.17
2023-02-19T23:04:23.896Z,23.17
2023-02-19T23:07:46.177Z,23.17
2023-02-19T23:11:08.691Z,23.15
2023-02-19T23:14:31.485Z,23.14
2023-02-19T23:17:53.279Z,23.14
2023-02-19T23:21:16.112Z,23.14
2023-02-19T23:24:37.939Z,23.15
2023-02-19T23:28:00.881Z,23.15
2023-02-19T23:31:22.748Z,23.15
2023-02-19T23:34:44.610Z,23.13
2023-02-19T23:38:06.437Z,23.14
2023-02-19T23:41:28.222Z,23.20
2023-02-19T23:44:50.062Z,23.25
2023-02-19T23:48:11.844Z,23.29
2023-02-19T23:51:33.725Z,23.33
2023-02-19T23:54:56.192Z,23.38
2023-02-19T23:58:18.386Z,23.41
